Time;durP1;ratioP1;P1;durP2;ratioP2;P2;SDS_P1;SDS_P2;PMS_P1;PMS_P2;Temp;Humidity;BMP_temperature;BMP_pressure;BME280_temperature;BME280_humidity;BME280_pressure;Samples;Min_cycle;Max_cycle;Signal;HPM_P1;HPM_P2
2021/06/18 00:00:44;;;;;;;10.15;5.57;;;;;;;25.86;72.24;100707.38;4987768;28;20471;-74
2021/06/18 00:03:09;;;;;;;7.82;5.63;;;;;;;25.88;72.46;100710.41;4989945;28;20035;-74
2021/06/18 00:05:35;;;;;;;10.48;5.68;;;;;;;25.76;73.29;100708.56;4974519;28;20104;-74
2021/06/18 00:08:00;;;;;;;10.38;5.72;;;;;;;25.73;73.25;100709.47;4973460;28;20041;-74
2021/06/18 00:10:26;;;;;;;10.93;6.03;;;;;;;25.77;73.73;100705.34;4974393;28;20026;-74
2021/06/18 00:12:53;;;;;;;7.15;5.70;;;;;;;25.72;73.90;100713.47;4988195;28;20044;-74
2021/06/18 00:15:18;;;;;;;8.95;5.43;;;;;;;25.64;74.13;100696.44;4986023;28;20027;-73
2021/06/18 00:17:44;;;;;;;8.27;5.45;;;;;;;25.51;75.11;100709.56;4993846;28;20108;-73
2021/06/18 00:20:11;;;;;;;13.35;5.78;;;;;;;25.41;76.70;100712.75;4996688;28;20368;-73
2021/06/18 00:22:38;;;;;;;12.10;5.97;;;;;;;25.37;76.56;100723.13;5000780;28;20026;-73
2021/06/18 00:25:06;;;;;;;7.40;5.78;;;;;;;25.33;76.37;100716.97;4988971;28;20053;-73
2021/06/18 00:27:31;;;;;;;9.07;5.63;;;;;;;25.01;77.54;100721.75;4976711;28;20044;-73
2021/06/18 00:29:57;;;;;;;11.43;5.80;;;;;;;25.12;77.64;100717.81;4986566;28;20125;-73
2021/06/18 00:32:22;;;;;;;8.25;5.85;;;;;;;25.02;77.92;100723.28;4976341;28;20042;-73
2021/06/18 00:34:48;;;;;;;9.55;6.00;;;;;;;25.01;78.61;100727.25;4982225;28;20050;-73
2021/06/18 00:37:13;;;;;;;8.90;5.88;;;;;;;24.89;78.58;100724.59;4992181;28;20501;-73
2021/06/18 00:39:40;;;;;;;9.38;6.30;;;;;;;24.67;79.50;100716.31;4988887;28;20057;-73
2021/06/18 00:42:06;;;;;;;10.52;6.47;;;;;;;24.68;79.43;100715.09;4988162;28;20034;-73
2021/06/18 00:44:33;;;;;;;8.00;6.20;;;;;;;24.63;79.76;100710.16;4990606;28;20735;-73
2021/06/18 00:46:58;;;;;;;8.85;6.60;;;;;;;24.74;79.60;100713.31;4991967;28;20093;-73
2021/06/18 00:49:25;;;;;;;11.07;6.53;;;;;;;24.65;80.11;100716.00;4985075;28;20683;-73
2021/06/18 00:51:51;;;;;;;8.23;6.93;;;;;;;24.55;80.83;100711.63;4984028;28;20629;-73
2021/06/18 00:54:27;;;;;;;11.88;6.18;;;;;;;24.49;80.96;100710.66;4973644;28;20101;-73
2021/06/18 00:57:00;;;;;;;8.40;6.03;;;;;;;24.47;81.21;100710.34;4994288;28;20088;-73
2021/06/18 00:59:26;;;;;;;10.90;6.82;;;;;;;24.41;81.35;100720.41;4983532;28;20034;-73
2021/06/18 01:01:53;;;;;;;12.70;6.57;;;;;;;24.36;81.83;100709.97;4974559;28;20035;-73
2021/06/18 01:04:21;;;;;;;14.20;6.20;;;;;;;24.38;81.27;100715.78;4993099;28;20084;-73
2021/06/18 01:06:52;;;;;;;8.05;6.50;;;;;;;24.31;81.61;100716.06;4985238;28;20026;-73
2021/06/18 01:09:19;;;;;;;7.93;6.28;;;;;;;24.28;81.72;100711.44;4990079;28;20497;-73
2021/06/18 01:12:05;;;;;;;9.48;6.38;;;;;;;24.38;81.67;100720.53;4993102;28;20062;-73
2021/06/18 01:14:40;;;;;;;8.88;6.60;;;;;;;24.46;81.83;100711.56;4991285;28;20046;-73
2021/06/18 01:17:18;;;;;;;10.95;6.65;;;;;;;24.48;81.40;100711.13;4990229;28;20065;-73
2021/06/18 01:19:53;;;;;;;8.63;6.38;;;;;;;24.28;82.15;100705.91;4988445;28;20030;-73
2021/06/18 01:22:21;;;;;;;7.65;6.35;;;;;;;24.36;81.44;100700.94;4989904;28;20037;-73
2021/06/18 01:24:50;;;;;;;12.05;7.00;;;;;;;24.18;82.09;100702.31;4994725;28;20537;-73
2021/06/18 01:27:31;;;;;;;11.13;6.53;;;;;;;24.12;82.59;100697.81;4990592;28;20475;-73
2021/06/18 01:30:22;;;;;;;12.05;7.30;;;;;;;24.08;81.87;100691.66;4974232;28;20089;-73
2021/06/18 01:32:55;;;;;;;12.18;6.40;;;;;;;24.03;82.89;100681.25;4991729;28;20068;-73
2021/06/18 01:35:21;;;;;;;10.00;6.25;;;;;;;24.06;83.16;100685.88;4978542;28;20117;-73
2021/06/18 01:37:49;;;;;;;10.85;6.60;;;;;;;24.04;83.97;100680.03;4985622;28;20034;-73
2021/06/18 01:40:17;;;;;;;8.15;6.15;;;;;;;23.86;84.54;100682.59;4984678;28;20024;-73
2021/06/18 01:42:45;;;;;;;14.10;7.10;;;;;;;23.84;84.42;100671.25;4992010;28;20403;-73
2021/06/18 01:45:14;;;;;;;11.00;6.75;;;;;;;23.80;83.88;100670.59;4972782;28;20038;-73
2021/06/18 01:47:42;;;;;;;11.25;6.85;;;;;;;23.81;83.96;100678.41;4989410;28;20065;-73
2021/06/18 01:50:11;;;;;;;9.07;6.78;;;;;;;23.74;84.43;100664.13;4974204;28;20113;-73
2021/06/18 01:52:41;;;;;;;10.52;6.90;;;;;;;23.81;83.99;100664.66;4963932;28;20109;-73
2021/06/18 01:55:08;;;;;;;10.13;7.50;;;;;;;23.70;84.27;100666.22;4982509;28;20023;-73
2021/06/18 01:57:36;;;;;;;9.25;6.57;;;;;;;23.79;84.34;100655.31;5014478;22;20169;-74
2021/06/18 02:00:04;;;;;;;10.57;6.43;;;;;;;23.77;83.90;100658.50;4979577;28;20022;-74
2021/06/18 02:02:38;;;;;;;7.70;6.40;;;;;;;23.72;83.92;100655.53;4969895;28;20038;-74
2021/06/18 02:05:06;;;;;;;9.70;6.65;;;;;;;23.72;83.73;100647.28;4989618;28;20041;-74
2021/06/18 02:07:35;;;;;;;9.90;6.78;;;;;;;23.79;83.12;100658.06;4956179;28;20208;-74
2021/06/18 02:10:06;;;;;;;12.40;6.90;;;;;;;23.75;83.73;100651.94;4968407;28;20427;-74
2021/06/18 02:12:32;;;;;;;9.55;6.80;;;;;;;23.51;84.79;100654.28;4989167;28;20042;-74
2021/06/18 02:14:58;;;;;;;11.88;7.10;;;;;;;23.46;85.11;100663.06;4976921;28;20113;-75
2021/06/18 02:17:26;;;;;;;9.05;6.70;;;;;;;23.51;84.75;100657.03;4981354;28;20635;-74
2021/06/18 02:19:55;;;;;;;9.80;6.90;;;;;;;23.66;84.05;100657.31;4981074;28;20042;-75
2021/06/18 02:22:21;;;;;;;10.52;6.80;;;;;;;23.84;83.24;100652.00;4965497;28;20117;-75
2021/06/18 02:24:48;;;;;;;13.75;6.80;;;;;;;23.75;83.66;100660.19;4950989;28;20066;-74
2021/06/18 02:27:15;;;;;;;12.98;6.85;;;;;;;23.70;83.45;100663.47;4972510;28;20096;-74
2021/06/18 02:29:42;;;;;;;10.85;7.43;;;;;;;23.58;84.39;100656.78;4977460;28;20031;-74
2021/06/18 02:32:11;;;;;;;13.43;7.45;;;;;;;23.78;83.43;100659.28;4950270;28;20070;-75
2021/06/18 02:34:36;;;;;;;11.38;6.93;;;;;;;23.88;82.53;100658.16;4957954;28;20058;-75
2021/06/18 02:37:03;;;;;;;9.73;6.82;;;;;;;23.80;82.85;100654.09;4976360;28;20108;-75
2021/06/18 02:39:29;;;;;;;8.02;6.93;;;;;;;23.86;82.21;100660.56;4961611;28;20055;-75
2021/06/18 02:41:55;;;;;;;10.23;7.82;;;;;;;23.72;82.83;100653.56;4979663;28;20035;-75
2021/06/18 02:44:20;;;;;;;8.70;6.80;;;;;;;23.88;82.63;100653.41;4986321;28;20491;-75
2021/06/18 02:46:54;;;;;;;11.00;7.18;;;;;;;23.84;82.80;100652.78;4978058;28;20050;-75
2021/06/18 02:49:27;;;;;;;13.82;8.25;;;;;;;23.79;82.78;100656.06;4989269;28;20040;-75
2021/06/18 02:51:59;;;;;;;12.10;7.20;;;;;;;23.62;83.62;100649.19;4982247;28;20030;-75
2021/06/18 02:54:40;;;;;;;11.60;7.20;;;;;;;23.47;84.79;100653.63;4979966;28;20109;-74
2021/06/18 02:57:18;;;;;;;9.93;7.93;;;;;;;23.37;84.62;100654.72;4958471;28;20125;-75
2021/06/18 02:59:47;;;;;;;9.75;7.55;;;;;;;23.23;84.77;100655.91;4987128;28;20038;-75
2021/06/18 03:02:18;;;;;;;9.85;7.38;;;;;;;23.23;85.67;100655.16;4967138;28;20033;-75
2021/06/18 03:04:45;;;;;;;9.57;7.03;;;;;;;23.25;85.69;100655.47;4968384;28;20395;-75
2021/06/18 03:07:15;;;;;;;11.95;7.32;;;;;;;23.18;86.23;100656.50;4989031;28;20057;-75
2021/06/18 03:09:53;;;;;;;9.43;7.18;;;;;;;23.17;85.81;100660.44;4946345;28;20117;-75
2021/06/18 03:12:22;;;;;;;10.38;7.40;;;;;;;23.01;87.02;100662.53;4973344;28;20123;-74
2021/06/18 03:14:49;;;;;;;9.07;6.55;;;;;;;23.07;86.21;100655.28;4953984;28;20037;-75
2021/06/18 03:17:18;;;;;;;11.20;7.47;;;;;;;23.11;86.80;100659.44;4978363;28;20145;-74
2021/06/18 03:19:52;;;;;;;8.95;7.45;;;;;;;23.18;86.23;100661.22;4970433;28;20039;-75
2021/06/18 03:22:21;;;;;;;12.30;7.40;;;;;;;23.37;85.62;100662.97;4978667;28;20121;-75
2021/06/18 03:24:48;;;;;;;11.80;7.75;;;;;;;23.18;85.73;100672.19;4977605;28;20034;-75
2021/06/18 03:27:15;;;;;;;9.95;7.35;;;;;;;23.11;86.93;100664.94;4985536;28;20116;-75
2021/06/18 03:29:41;;;;;;;10.50;6.93;;;;;;;23.29;86.36;100667.13;4984426;28;20395;-75
2021/06/18 03:32:08;;;;;;;9.50;7.45;;;;;;;23.25;86.56;100671.97;4981111;28;20030;-75
2021/06/18 03:34:35;;;;;;;7.93;7.05;;;;;;;23.08;87.27;100673.28;4963764;28;20041;-75
2021/06/18 03:37:01;;;;;;;9.13;7.28;;;;;;;22.95;87.63;100676.06;4977973;28;20034;-75
2021/06/18 03:39:28;;;;;;;12.02;7.68;;;;;;;22.98;87.07;100677.13;4979898;28;20042;-74
2021/06/18 03:41:56;;;;;;;12.05;7.28;;;;;;;22.89;87.41;100679.78;4960188;28;20038;-75
2021/06/18 03:44:22;;;;;;;11.48;7.13;;;;;;;22.99;88.53;100675.94;4962751;28;20074;-75
2021/06/18 03:46:49;;;;;;;11.50;7.43;;;;;;;22.92;88.41;100671.41;4973344;28;20030;-75
2021/06/18 03:49:16;;;;;;;11.52;7.32;;;;;;;22.98;87.55;100666.91;4971320;28;20167;-75
2021/06/18 03:51:42;;;;;;;11.20;7.72;;;;;;;23.21;86.89;100679.56;4973162;28;20030;-75
2021/06/18 03:54:08;;;;;;;9.88;7.57;;;;;;;23.08;88.28;100681.53;4991462;28;20105;-75
2021/06/18 03:56:35;;;;;;;9.70;7.55;;;;;;;23.04;89.62;100689.13;4966221;28;20101;-75
2021/06/18 03:59:02;;;;;;;12.18;7.95;;;;;;;23.07;89.32;100683.50;4982854;28;20140;-75
2021/06/18 04:01:29;;;;;;;11.10;7.75;;;;;;;23.00;88.95;100681.00;4974434;28;20018;-74
2021/06/18 04:03:57;;;;;;;9.48;7.90;;;;;;;22.99;89.73;100673.97;4975771;28;20031;-75
2021/06/18 04:06:24;;;;;;;10.35;7.70;;;;;;;22.86;90.20;100677.91;4976592;28;20522;-75
2021/06/18 04:08:50;;;;;;;15.43;7.97;;;;;;;22.76;89.92;100673.50;4974817;28;20511;-75
2021/06/18 04:11:16;;;;;;;8.93;7.85;;;;;;;22.83;91.32;100673.28;4981140;28;20038;-74
2021/06/18 04:13:43;;;;;;;8.98;7.88;;;;;;;22.61;89.93;100669.63;4987841;28;20483;-75
2021/06/18 04:16:12;;;;;;;11.80;8.52;;;;;;;22.65;89.79;100670.28;4977996;28;20046;-75
2021/06/18 04:18:44;;;;;;;9.40;8.18;;;;;;;22.86;89.39;100675.91;4969370;28;20034;-75
2021/06/18 04:21:20;;;;;;;11.25;8.18;;;;;;;22.99;89.56;100673.97;4990029;28;20040;-75
2021/06/18 04:23:46;;;;;;;9.55;7.95;;;;;;;23.00;91.02;100681.00;4965813;28;20046;-75
2021/06/18 04:26:11;;;;;;;11.20;8.30;;;;;;;23.01;91.22;100684.50;4974059;28;20029;-75
2021/06/18 04:28:39;;;;;;;13.32;8.20;;;;;;;22.99;90.24;100676.72;4978921;28;20035;-75
2021/06/18 04:31:05;;;;;;;13.27;8.00;;;;;;;23.09;89.12;100681.09;4974566;28;20043;-75
2021/06/18 04:33:31;;;;;;;9.23;7.85;;;;;;;23.25;88.40;100670.00;4958383;28;20502;-75
2021/06/18 04:35:57;;;;;;;11.40;7.85;;;;;;;23.43;88.04;100679.69;4978617;28;20049;-75
2021/06/18 04:38:22;;;;;;;10.98;8.20;;;;;;;23.55;88.38;100670.66;4951161;28;20030;-75
2021/06/18 04:40:50;;;;;;;9.32;7.85;;;;;;;23.50;90.17;100682.97;4978668;28;20114;-75
2021/06/18 04:43:16;;;;;;;12.00;8.10;;;;;;;23.55;87.61;100676.94;4965072;28;20376;-75
2021/06/18 04:45:41;;;;;;;11.32;8.00;;;;;;;23.48;87.71;100685.41;4985442;28;20033;-75
2021/06/18 04:48:07;;;;;;;9.38;8.20;;;;;;;23.68;83.79;100682.41;4978601;28;20042;-75
2021/06/18 04:50:32;;;;;;;15.52;8.43;;;;;;;23.71;83.90;100670.53;4973244;28;20041;-75
2021/06/18 04:53:00;;;;;;;14.32;9.45;;;;;;;23.83;83.81;100675.22;4962959;28;20030;-75
2021/06/18 04:55:25;;;;;;;10.85;8.30;;;;;;;24.01;83.01;100678.91;4962548;28;20037;-75
2021/06/18 04:57:51;;;;;;;13.02;7.88;;;;;;;24.24;84.20;100674.22;4968026;28;20035;-75
2021/06/18 05:00:18;;;;;;;11.88;8.05;;;;;;;24.23;85.62;100684.47;4964704;28;20022;-76
2021/06/18 05:02:44;;;;;;;11.60;7.63;;;;;;;24.07;85.22;100681.88;4993298;28;20038;-75
2021/06/18 05:05:10;;;;;;;15.82;9.07;;;;;;;24.02;83.48;100674.97;4975278;28;20034;-75
2021/06/18 05:07:35;;;;;;;10.45;8.23;;;;;;;24.15;84.00;100680.44;4962159;28;20034;-75
2021/06/18 05:10:01;;;;;;;13.18;8.80;;;;;;;24.41;83.07;100672.84;4992454;28;20376;-76
2021/06/18 05:12:27;;;;;;;14.98;8.35;;;;;;;24.37;83.05;100677.69;4967815;28;20037;-75
2021/06/18 05:14:52;;;;;;;8.73;7.85;;;;;;;24.91;82.70;100681.56;4965736;28;20015;-75
2021/06/18 05:17:18;;;;;;;13.98;8.27;;;;;;;25.97;78.24;100680.06;4963417;28;20030;-75
2021/06/18 05:19:43;;;;;;;13.38;7.45;;;;;;;27.17;72.18;100685.72;4984723;28;20121;-75
2021/06/18 05:22:09;;;;;;;10.07;7.35;;;;;;;27.77;68.85;100702.97;4968572;28;20034;-76
2021/06/18 05:24:34;;;;;;;9.63;7.07;;;;;;;28.65;64.70;100703.22;4961465;28;20543;-75
2021/06/18 05:27:00;;;;;;;9.35;7.75;;;;;;;28.69;64.02;100695.47;4978015;28;20023;-75
2021/06/18 05:29:26;;;;;;;11.20;7.57;;;;;;;29.51;62.26;100703.59;4987149;28;20034;-75
2021/06/18 05:31:52;;;;;;;10.38;7.00;;;;;;;29.87;59.49;100691.97;4972303;28;20038;-76
2021/06/18 05:34:17;;;;;;;11.57;7.45;;;;;;;30.15;57.33;100690.28;4981273;28;20034;-75
2021/06/18 05:36:45;;;;;;;12.27;7.03;;;;;;;30.16;56.42;100694.59;4950767;28;20038;-75
2021/06/18 05:39:15;;;;;;;13.35;7.93;;;;;;;29.97;55.12;100694.13;4978230;28;20125;-75
2021/06/18 05:41:42;;;;;;;8.57;6.97;;;;;;;29.77;54.14;100694.13;4976854;28;20389;-75
2021/06/18 05:44:08;;;;;;;10.82;7.10;;;;;;;29.53;54.08;100699.09;4982655;28;20030;-76
2021/06/18 05:46:34;;;;;;;10.95;7.32;;;;;;;29.94;53.22;100700.66;4987517;28;20444;-76
2021/06/18 05:49:00;;;;;;;9.27;6.95;;;;;;;30.19;56.14;100708.28;4969669;28;20026;-76
2021/06/18 05:51:25;;;;;;;11.77;6.90;;;;;;;30.19;53.44;100707.53;4954386;28;20097;-75
2021/06/18 05:53:52;;;;;;;8.07;6.60;;;;;;;30.62;53.79;100716.84;4967200;28;20838;-75
2021/06/18 05:56:17;;;;;;;9.77;6.72;;;;;;;30.77;53.18;100717.50;4966049;28;20457;-75
2021/06/18 05:58:43;;;;;;;8.95;6.43;;;;;;;31.17;51.85;100713.78;4964884;28;20036;-75
2021/06/18 06:01:08;;;;;;;11.55;6.65;;;;;;;30.52;49.60;100707.91;4984400;28;20121;-75
2021/06/18 06:03:34;;;;;;;8.20;6.70;;;;;;;30.24;49.82;100715.91;4984704;28;20062;-75
2021/06/18 06:06:00;;;;;;;11.80;6.90;;;;;;;30.29;50.35;100720.06;4974126;28;20038;-74
2021/06/18 06:08:26;;;;;;;9.18;7.32;;;;;;;30.27;50.49;100722.53;4977872;28;20038;-74
2021/06/18 06:10:52;;;;;;;9.68;6.88;;;;;;;29.95;51.86;100724.41;4962771;28;20038;-73
2021/06/18 06:13:19;;;;;;;12.18;6.70;;;;;;;30.11;52.42;100721.09;4984500;28;20490;-73
2021/06/18 06:15:46;;;;;;;9.73;6.47;;;;;;;30.33;53.48;100709.47;4982226;28;20046;-75
2021/06/18 06:18:13;;;;;;;8.00;6.63;;;;;;;30.68;53.87;100718.41;4947165;28;20608;-75
2021/06/18 06:20:40;;;;;;;11.52;6.80;;;;;;;30.81;53.64;100720.81;4981907;28;20100;-73
2021/06/18 06:23:09;;;;;;;9.00;6.30;;;;;;;31.04;53.14;100719.78;4975275;28;20061;-74
2021/06/18 06:25:34;;;;;;;8.15;6.85;;;;;;;31.03;52.17;100721.78;4981828;28;20491;-73
2021/06/18 06:28:00;;;;;;;9.60;6.57;;;;;;;31.06;53.15;100722.81;4981168;28;20034;-73
2021/06/18 06:30:25;;;;;;;8.18;6.78;;;;;;;31.15;51.89;100722.63;4975852;28;20126;-74
2021/06/18 06:32:51;;;;;;;11.88;6.90;;;;;;;30.60;51.55;100714.56;4981081;28;20516;-74
2021/06/18 06:35:16;;;;;;;11.77;6.18;;;;;;;30.96;51.48;100713.13;4982139;28;20034;-74
2021/06/18 06:37:42;;;;;;;8.95;6.10;;;;;;;31.16;52.06;100715.06;4967819;28;20030;-74
2021/06/18 06:40:29;;;;;;;9.25;6.50;;;;;;;31.14;53.00;100718.34;4975857;28;20935;-73
2021/06/18 06:42:55;;;;;;;20.10;7.25;;;;;;;30.58;50.36;100724.66;4894543;29;20076;-74
2021/06/18 06:45:20;;;;;;;12.50;6.57;;;;;;;29.87;52.38;100714.19;4895468;29;20091;-74
2021/06/18 06:47:46;;;;;;;15.98;7.07;;;;;;;29.95;53.12;100716.06;4902512;29;20076;-74
2021/06/18 06:50:12;;;;;;;11.68;6.88;;;;;;;30.51;54.35;100722.31;4891199;29;20036;-75
2021/06/18 06:52:38;;;;;;;10.48;7.35;;;;;;;30.72;51.32;100729.34;4905413;29;20066;-73
2021/06/18 06:55:04;;;;;;;11.57;7.10;;;;;;;30.79;51.34;100728.88;4900226;29;20048;-73
2021/06/18 06:57:29;;;;;;;9.25;6.78;;;;;;;30.94;51.74;100723.97;4905311;29;20084;-73
2021/06/18 06:59:55;;;;;;;11.93;6.57;;;;;;;30.85;52.74;100726.94;4908978;29;20052;-73
2021/06/18 07:02:20;;;;;;;13.70;6.70;;;;;;;31.01;53.96;100715.94;4894641;29;20429;-73
2021/06/18 07:04:45;;;;;;;10.68;6.57;;;;;;;31.18;52.80;100718.88;4909801;29;20042;-73
2021/06/18 07:07:11;;;;;;;8.07;6.70;;;;;;;30.94;50.49;100726.78;4901859;29;20067;-73
2021/06/18 07:09:40;;;;;;;12.10;6.80;;;;;;;30.91;51.51;100722.94;4892854;29;20119;-73
2021/06/18 07:12:07;;;;;;;10.70;6.65;;;;;;;31.10;51.73;100723.38;4896437;29;20759;-73
2021/06/18 07:14:36;;;;;;;9.82;6.97;;;;;;;31.34;51.58;100721.00;4900067;29;20045;-73
2021/06/18 07:17:02;;;;;;;12.32;6.68;;;;;;;31.50;51.02;100727.97;4907514;29;20405;-73
2021/06/18 07:19:27;;;;;;;11.80;7.00;;;;;;;31.77;51.40;100725.34;4915686;28;20054;-73
2021/06/18 07:22:16;;;;;;;11.50;6.85;;;;;;;31.41;49.06;100740.06;4960031;28;20045;-73
2021/06/18 07:24:41;;;;;;;13.40;6.82;;;;;;;31.19;50.53;100725.97;4909462;29;20048;-72
2021/06/18 07:27:07;;;;;;;8.70;7.20;;;;;;;31.50;50.91;100725.16;4905011;29;20041;-72
2021/06/18 07:29:32;;;;;;;12.50;6.55;;;;;;;31.39;50.55;100725.88;4909217;29;20051;-73
2021/06/18 07:31:58;;;;;;;17.05;7.25;;;;;;;31.50;49.94;100728.72;4907721;29;22339;-73
2021/06/18 07:34:23;;;;;;;11.82;7.05;;;;;;;31.55;50.09;100728.00;4879861;29;20032;-73
2021/06/18 07:36:49;;;;;;;7.47;6.45;;;;;;;31.46;50.81;100725.41;4906279;29;20477;-73
2021/06/18 07:39:15;;;;;;;9.77;6.85;;;;;;;31.64;51.27;100727.81;4899883;29;20048;-74
2021/06/18 07:41:41;;;;;;;12.05;7.13;;;;;;;31.41;53.06;100722.59;4890251;29;20040;-73
2021/06/18 07:44:07;;;;;;;8.35;6.53;;;;;;;31.58;51.98;100721.44;4898575;29;20096;-73
2021/06/18 07:46:32;;;;;;;12.00;6.63;;;;;;;32.08;49.46;100716.09;4901616;29;20088;-73
2021/06/18 07:48:58;;;;;;;11.65;6.40;;;;;;;32.37;48.65;100721.25;4895377;29;20485;-72
2021/06/18 07:51:23;;;;;;;9.25;5.90;;;;;;;32.53;49.29;100714.22;4909822;29;20040;-73
2021/06/18 07:53:49;;;;;;;8.15;6.20;;;;;;;32.57;47.25;100711.94;4908835;29;20071;-73
2021/06/18 07:56:22;;;;;;;8.93;5.95;;;;;;;32.64;46.73;100712.22;4893507;29;20095;-73
2021/06/18 07:58:48;;;;;;;12.38;6.70;;;;;;;32.95;46.66;100711.19;4894667;29;20043;-74
2021/06/18 08:01:14;;;;;;;11.18;6.25;;;;;;;33.14;46.82;100709.44;4932458;28;20399;-74
2021/06/18 08:03:40;;;;;;;9.95;6.00;;;;;;;33.14;47.05;100715.03;4987740;28;20360;-74
2021/06/18 08:06:05;;;;;;;9.30;6.38;;;;;;;33.41;47.05;100708.63;4980647;28;20185;-74
2021/06/18 08:08:30;;;;;;;9.82;6.32;;;;;;;33.21;45.32;100728.50;4978718;28;20035;-74
2021/06/18 08:10:56;;;;;;;9.70;5.95;;;;;;;33.46;46.20;100710.66;4974879;28;21873;-74
2021/06/18 08:13:21;;;;;;;11.20;6.18;;;;;;;33.55;44.82;100716.00;4980876;28;20142;-73
2021/06/18 08:15:47;;;;;;;6.25;5.65;;;;;;;33.45;47.14;100716.78;4958903;28;20038;-74
2021/06/18 08:18:12;;;;;;;8.90;5.20;;;;;;;33.63;43.64;100710.63;4977775;28;20122;-73
2021/06/18 08:20:38;;;;;;;8.48;5.38;;;;;;;33.67;42.98;100703.50;4978254;28;20042;-73
2021/06/18 08:23:03;;;;;;;9.30;5.22;;;;;;;33.93;43.39;100708.75;4955483;28;20027;-73
2021/06/18 08:25:29;;;;;;;8.90;6.00;;;;;;;34.03;45.08;100709.25;4964202;28;20045;-73
2021/06/18 08:27:54;;;;;;;7.95;6.00;;;;;;;33.96;46.28;100704.16;4991035;28;20407;-73
2021/06/18 08:30:20;;;;;;;8.32;5.65;;;;;;;34.18;45.10;100698.47;4988068;28;20805;-73
2021/06/18 08:32:46;;;;;;;12.70;5.43;;;;;;;34.61;44.02;100702.31;4990237;28;20038;-73
2021/06/18 08:35:12;;;;;;;11.25;5.38;;;;;;;34.68;42.68;100695.38;4986495;28;20030;-73
2021/06/18 08:37:37;;;;;;;13.85;5.35;;;;;;;34.39;41.76;100694.78;4958444;28;20062;-73
2021/06/18 08:40:04;;;;;;;7.15;5.00;;;;;;;34.47;42.44;100683.81;4989479;28;20034;-73
2021/06/18 08:42:30;;;;;;;6.15;5.40;;;;;;;34.65;42.17;100685.97;4987928;28;20026;-73
2021/06/18 08:44:56;;;;;;;6.10;5.15;;;;;;;34.96;43.40;100687.53;4990193;28;20046;-73
2021/06/18 08:47:21;;;;;;;9.70;6.00;;;;;;;34.62;42.24;100678.63;4972858;28;20517;-73
2021/06/18 08:49:47;;;;;;;6.57;5.22;;;;;;;34.58;43.00;100680.94;4973959;28;20546;-73
2021/06/18 08:52:12;;;;;;;6.85;5.55;;;;;;;34.49;43.01;100681.28;4986034;28;20093;-73
2021/06/18 08:54:43;;;;;;;10.00;5.65;;;;;;;34.45;42.97;100680.75;4987779;28;20426;-73
2021/06/18 08:57:10;;;;;;;;;;;;;;;34.37;42.75;100679.78;4967409;28;20096;-73
2021/06/18 08:59:36;;;;;;;10.60;5.65;;;;;;;34.49;45.18;100684.06;4985818;28;20023;-73
2021/06/18 09:02:02;;;;;;;8.73;5.55;;;;;;;34.74;44.03;100682.84;4968236;28;20121;-73
2021/06/18 09:04:27;;;;;;;6.85;5.72;;;;;;;34.84;43.38;100686.09;4984367;28;20034;-73
2021/06/18 09:07:00;;;;;;;9.20;5.32;;;;;;;35.36;43.63;100678.97;4987883;28;20094;-73
2021/06/18 09:09:31;;;;;;;9.85;5.10;;;;;;;35.81;42.87;100684.81;4969518;28;20049;-73
2021/06/18 09:12:00;;;;;;;;;;;;;;;35.55;43.15;100676.22;4984446;28;20041;-73
2021/06/18 09:14:40;;;;;;;6.03;4.85;;;;;;;35.70;42.23;100670.19;4987248;28;19918;-73
2021/06/18 09:17:14;;;;;;;7.32;4.97;;;;;;;35.58;40.72;100672.34;4951820;28;20146;-73
2021/06/18 09:19:41;;;;;;;9.70;5.65;;;;;;;35.53;40.16;100678.81;4970305;28;20030;-73
2021/06/18 09:22:09;;;;;;;8.32;5.30;;;;;;;35.62;40.17;100674.88;4984030;28;20065;-73
2021/06/18 09:24:41;;;;;;;7.35;4.97;;;;;;;35.36;40.29;100667.75;4981873;28;20047;-73
2021/06/18 09:27:07;;;;;;;6.03;4.97;;;;;;;35.31;39.84;100665.75;4974883;28;20474;-73
2021/06/18 09:29:34;;;;;;;9.77;5.10;;;;;;;35.78;40.88;100676.72;4958793;28;20487;-73
2021/06/18 09:32:12;;;;;;;8.35;5.30;;;;;;;36.08;39.85;100671.75;4976685;28;20042;-73
2021/06/18 09:34:59;;;;;;;7.22;4.65;;;;;;;36.10;40.27;100666.38;4958974;28;20495;-73
2021/06/18 09:37:36;;;;;;;6.95;4.85;;;;;;;35.76;40.81;100668.06;4979910;28;20506;-74
2021/06/18 09:40:11;;;;;;;6.68;4.60;;;;;;;35.73;40.96;100669.13;4974306;28;20084;-74
2021/06/18 09:43:23;;;;;;;8.68;4.80;;;;;;;36.22;39.94;100662.84;4972387;28;20057;-74
2021/06/18 09:45:49;;;;;;;8.38;4.40;;;;;;;36.04;40.10;100662.88;4974587;28;20034;-74
2021/06/18 09:48:22;;;;;;;7.90;4.90;;;;;;;36.42;39.79;100658.75;4982707;28;20657;-74
2021/06/18 09:51:06;;;;;;;7.80;5.38;;;;;;;36.26;38.94;100652.09;4964513;28;20121;-74
2021/06/18 09:53:32;;;;;;;9.15;4.88;;;;;;;36.20;40.54;100656.25;4988762;28;20029;-74
2021/06/18 09:56:04;;;;;;;7.10;4.75;;;;;;;36.57;40.05;100652.63;4986784;28;20034;-74
2021/06/18 09:58:34;;;;;;;7.53;4.80;;;;;;;36.51;38.52;100660.41;4976260;28;20049;-73
2021/06/18 10:01:13;;;;;;;5.90;5.22;;;;;;;36.48;38.38;100645.41;4980572;28;20458;-74
2021/06/18 10:04:02;;;;;;;6.05;4.80;;;;;;;36.72;38.92;100656.47;4947463;28;20038;-74
2021/06/18 10:06:32;;;;;;;8.27;4.47;;;;;;;36.71;38.33;100649.34;4975030;28;20113;-74
2021/06/18 10:08:58;;;;;;;;;;;;;;;36.86;37.97;100648.84;4962337;28;20043;-74
2021/06/18 10:11:24;;;;;;;5.88;4.47;;;;;;;37.00;37.64;100656.00;4959163;28;19925;-74
2021/06/18 10:13:52;;;;;;;6.22;4.65;;;;;;;36.81;38.01;100646.88;4975217;28;20113;-74
2021/06/18 10:16:17;;;;;;;9.13;4.55;;;;;;;37.21;38.32;100645.66;4957811;28;20042;-74
2021/06/18 10:18:43;;;;;;;6.00;4.68;;;;;;;36.87;37.79;100641.94;4983902;28;20133;-74
2021/06/18 10:21:09;;;;;;;6.72;4.82;;;;;;;37.13;38.74;100645.53;4986091;28;20114;-74
2021/06/18 10:23:36;;;;;;;8.52;4.68;;;;;;;37.39;37.78;100649.66;4966803;28;20114;-74
2021/06/18 10:26:04;;;;;;;6.93;4.80;;;;;;;37.46;38.30;100644.16;4958312;28;20042;-74
2021/06/18 10:28:34;;;;;;;7.45;4.78;;;;;;;37.40;37.04;100657.56;4970320;28;20502;-74
2021/06/18 10:31:21;;;;;;;9.27;4.68;;;;;;;37.02;38.19;100656.22;4970051;28;20034;-74
2021/06/18 10:34:13;;;;;;;8.18;4.80;;;;;;;37.10;36.97;100640.25;4944273;28;20078;-74
2021/06/18 10:36:39;;;;;;;7.43;4.78;;;;;;;36.99;37.18;100641.19;4945305;28;20125;-74
2021/06/18 10:39:04;;;;;;;7.10;4.65;;;;;;;37.17;37.46;100638.84;4926657;29;20095;-74
2021/06/18 10:41:30;;;;;;;6.70;5.43;;;;;;;37.03;37.55;100636.00;4928371;29;20578;-73
2021/06/18 10:43:57;;;;;;;5.30;4.78;;;;;;;37.11;37.04;100636.13;4942722;29;20046;-73
2021/06/18 10:46:28;;;;;;;5.13;4.63;;;;;;;37.02;37.77;100628.88;4922044;29;23010;-72
2021/06/18 10:48:58;;;;;;;7.45;5.30;;;;;;;37.20;37.20;100632.13;4922794;29;20031;-72
2021/06/18 10:51:26;;;;;;;6.13;4.97;;;;;;;37.36;37.39;100623.38;4939945;28;20628;-72
2021/06/18 10:54:06;;;;;;;6.45;4.75;;;;;;;37.65;37.25;100619.44;4910254;29;20031;-73
2021/06/18 10:57:01;;;;;;;8.63;4.65;;;;;;;37.88;36.58;100609.25;4941119;28;20039;-74
2021/06/18 10:59:33;;;;;;;8.00;4.75;;;;;;;38.35;37.12;100605.63;4925920;29;20054;-74
2021/06/18 11:02:02;;;;;;;6.32;4.72;;;;;;;38.71;36.18;100607.28;4930194;29;20054;-74
2021/06/18 11:04:44;;;;;;;9.60;4.85;;;;;;;38.44;35.38;100617.16;4936538;29;20106;-73
2021/06/18 11:07:22;;;;;;;6.00;4.63;;;;;;;38.31;36.51;100620.03;4931189;29;20039;-74
2021/06/18 11:09:50;;;;;;;7.68;4.70;;;;;;;38.61;36.99;100613.91;4945365;28;20717;-75
2021/06/18 11:12:22;;;;;;;4.93;4.50;;;;;;;38.76;36.07;100611.22;4961159;28;20038;-74
2021/06/18 11:14:48;;;;;;;6.93;4.70;;;;;;;38.91;36.67;100613.41;4957859;28;20050;-75
2021/06/18 11:17:43;;;;;;;7.85;4.60;;;;;;;38.85;35.58;100615.63;4982060;28;20034;-74
2021/06/18 11:20:32;;;;;;;5.30;4.55;;;;;;;38.74;35.48;100616.66;4942395;28;20122;-74
2021/06/18 11:23:11;;;;;;;5.22;4.57;;;;;;;38.52;35.49;100622.84;4972550;28;20474;-74
2021/06/18 11:25:40;;;;;;;6.43;4.72;;;;;;;38.72;35.54;100608.78;4964358;28;20030;-73
2021/06/18 11:30:53;;;;;;;12.10;5.28;;;;;;;38.71;35.92;100612.91;4974431;28;20042;-74